createdAt,value
2022-10-23T00:01:41.493Z,19.99
2022-10-23T00:04:13.274Z,20.02
2022-10-23T00:06:40.684Z,19.81
2022-10-23T00:09:08.999Z,19.82
2022-10-23T00:11:36.775Z,19.68
2022-10-23T00:14:08.098Z,19.74
2022-10-23T00:16:38.141Z,19.72
2022-10-23T00:19:06.939Z,19.78
2022-10-23T00:21:57.422Z,19.62
2022-10-23T00:24:25.397Z,19.69
2022-10-23T00:26:54.480Z,19.68
2022-10-23T00:29:21.298Z,19.72
2022-10-23T00:31:59.752Z,19.92
2022-10-23T00:34:27.521Z,19.74
2022-10-23T00:36:54.178Z,19.70
2022-10-23T00:39:21.126Z,19.65
2022-10-23T00:41:47.816Z,19.76
2022-10-23T00:44:17.635Z,19.69
2022-10-23T00:46:46.104Z,19.86
2022-10-23T00:49:16.444Z,19.85
2022-10-23T00:51:53.932Z,19.93
2022-10-23T00:54:24.802Z,19.70
2022-10-23T00:56:56.049Z,19.62
2022-10-23T00:59:23.256Z,19.56
2022-10-23T01:01:50.235Z,19.31
2022-10-23T01:04:17.253Z,19.27
2022-10-23T01:07:08.616Z,19.36
2022-10-23T01:09:45.781Z,19.48
2022-10-23T01:12:31.995Z,19.43
2022-10-23T01:15:47.739Z,19.31
2022-10-23T01:18:20.702Z,18.95
2022-10-23T01:20:55.594Z,19.28
2022-10-23T01:23:40.904Z,19.00
2022-10-23T01:26:43.813Z,18.80
2022-10-23T01:29:19.852Z,18.81
2022-10-23T01:32:03.798Z,18.81
2022-10-23T01:34:56.524Z,18.94
2022-10-23T01:37:56.084Z,18.62
2022-10-23T01:40:32.279Z,18.44
2022-10-23T01:43:06.474Z,18.56
2022-10-23T01:45:50.562Z,18.47
2022-10-23T01:48:24.936Z,18.43
2022-10-23T01:50:56.373Z,18.38
2022-10-23T01:53:26.253Z,18.41
2022-10-23T01:55:57.168Z,18.44
2022-10-23T01:58:29.798Z,18.48
2022-10-23T02:01:07.820Z,18.46
2022-10-23T02:03:37.732Z,18.46
2022-10-23T02:06:09.345Z,18.39
2022-10-23T02:08:36.212Z,18.32
2022-10-23T02:11:13.220Z,18.43
2022-10-23T02:13:48.103Z,18.39
2022-10-23T02:16:23.219Z,18.39
2022-10-23T02:19:34.583Z,18.33
2022-10-23T02:22:07.210Z,18.25
2022-10-23T02:24:47.540Z,18.26
2022-10-23T02:27:30.041Z,18.45
2022-10-23T02:30:04.759Z,18.29
2022-10-23T02:32:31.546Z,18.26
2022-10-23T02:34:58.695Z,18.21
2022-10-23T02:37:25.691Z,18.11
2022-10-23T02:39:58.340Z,18.27
2022-10-23T02:42:44.434Z,18.13
2022-10-23T02:46:05.318Z,18.14
2022-10-23T02:48:55.459Z,18.12
2022-10-23T02:51:52.493Z,18.07
2022-10-23T02:54:47.432Z,18.11
2022-10-23T02:57:28.184Z,18.12
2022-10-23T03:00:07.389Z,17.92
2022-10-23T03:02:45.979Z,17.97
2022-10-23T03:05:26.891Z,17.99
2022-10-23T03:07:54.050Z,17.99
2022-10-23T03:10:23.188Z,18.00
2022-10-23T03:12:50.658Z,18.00
2022-10-23T03:15:23.744Z,17.98
2022-10-23T03:18:03.842Z,18.10
2022-10-23T03:20:36.587Z,18.09
2022-10-23T03:23:03.743Z,17.98
2022-10-23T03:25:36.403Z,17.95
2022-10-23T03:28:06.471Z,18.06
2022-10-23T03:30:33.879Z,17.95
2022-10-23T03:33:02.385Z,18.09
2022-10-23T03:35:29.114Z,17.93
2022-10-23T03:38:04.081Z,17.98
2022-10-23T03:40:31.127Z,18.03
2022-10-23T03:42:58.743Z,18.15
2022-10-23T03:45:29.757Z,18.11
2022-10-23T03:47:58.285Z,18.09
2022-10-23T03:50:28.134Z,18.10
2022-10-23T03:52:56.567Z,18.10
2022-10-23T03:55:23.645Z,18.01
2022-10-23T03:57:50.435Z,18.10
2022-10-23T04:00:37.455Z,18.06
2022-10-23T04:03:07.590Z,18.28
2022-10-23T04:05:36.190Z,18.24
2022-10-23T04:08:16.328Z,18.27
2022-10-23T04:10:53.054Z,18.22
2022-10-23T04:13:23.651Z,18.20
2022-10-23T04:15:57.886Z,18.43
2022-10-23T04:18:24.571Z,18.59
2022-10-23T04:20:51.551Z,18.40
2022-10-23T04:23:19.764Z,18.53
2022-10-23T04:25:49.578Z,18.29
2022-10-23T04:28:17.540Z,18.06
2022-10-23T04:30:46.633Z,18.05
2022-10-23T04:33:13.260Z,18.04
2022-10-23T04:35:41.349Z,18.11
2022-10-23T04:38:08.003Z,18.07
2022-10-23T04:40:34.813Z,18.13
2022-10-23T04:43:01.660Z,17.97
2022-10-23T04:45:28.391Z,18.23
2022-10-23T04:47:56.228Z,18.00
2022-10-23T04:50:23.322Z,17.93
2022-10-23T04:52:54.332Z,17.98
2022-10-23T04:55:21.179Z,18.20
2022-10-23T04:57:51.100Z,17.93
2022-10-23T05:00:18.624Z,17.80
2022-10-23T05:02:45.835Z,17.80
2022-10-23T05:05:12.686Z,17.79
2022-10-23T05:07:40.806Z,17.78
2022-10-23T05:10:08.152Z,17.81
2022-10-23T05:12:34.805Z,17.71
2022-10-23T05:15:45.299Z,17.67
2022-10-23T05:18:18.073Z,17.78
2022-10-23T05:20:47.636Z,17.69
2022-10-23T05:23:19.560Z,17.77
2022-10-23T05:25:48.254Z,17.81
2022-10-23T05:28:20.753Z,18.03
2022-10-23T05:30:49.663Z,18.09
2022-10-23T05:33:57.077Z,17.94
2022-10-23T05:36:27.640Z,18.02
2022-10-23T05:38:54.652Z,18.17
2022-10-23T05:41:21.398Z,18.13
2022-10-23T05:43:48.307Z,18.12
2022-10-23T05:46:15.159Z,18.10
2022-10-23T05:48:42.029Z,18.09
2022-10-23T05:51:11.883Z,18.29
2022-10-23T05:53:41.724Z,18.25
2022-10-23T05:56:09.688Z,18.01
2022-10-23T05:58:36.713Z,17.98
2022-10-23T06:01:09.109Z,18.25
2022-10-23T06:03:36.969Z,18.56
2022-10-23T06:06:04.260Z,18.41
2022-10-23T06:08:32.431Z,18.44
2022-10-23T06:11:02.037Z,18.57
2022-10-23T06:13:28.681Z,18.33
2022-10-23T06:15:55.356Z,18.14
2022-10-23T06:18:22.276Z,18.47
2022-10-23T06:20:49.380Z,18.52
2022-10-23T06:23:16.078Z,18.83
2022-10-23T06:25:42.859Z,18.64
2022-10-23T06:28:20.550Z,18.28
2022-10-23T06:30:47.652Z,18.24
2022-10-23T06:33:14.318Z,18.12
2022-10-23T06:35:41.059Z,17.96
2022-10-23T06:38:09.220Z,17.88
2022-10-23T06:40:36.370Z,18.44
2022-10-23T06:43:06.143Z,18.60
2022-10-23T06:45:34.088Z,18.15
2022-10-23T06:48:01.252Z,17.99
2022-10-23T06:50:31.140Z,18.17
2022-10-23T06:52:58.044Z,18.31
2022-10-23T06:55:24.892Z,18.64
2022-10-23T06:57:51.691Z,18.64
2022-10-23T07:00:18.386Z,18.44
2022-10-23T07:02:50.948Z,18.34
2022-10-23T07:05:19.571Z,18.49
2022-10-23T07:07:46.692Z,18.44
2022-10-23T07:12:40.286Z,18.33
2022-10-23T07:15:07.881Z,18.34
2022-10-23T07:17:34.523Z,18.53
2022-10-23T07:20:04.637Z,18.66
2022-10-23T07:22:36.502Z,18.46
2022-10-23T07:25:06.589Z,18.06
2022-10-23T07:27:44.631Z,18.07
2022-10-23T07:30:13.463Z,18.74
2022-10-23T07:32:40.994Z,19.08
2022-10-23T07:37:51.461Z,18.89
2022-10-23T07:40:29.751Z,18.79
2022-10-23T07:43:08.660Z,18.92
2022-10-23T07:45:38.449Z,19.09
2022-10-23T07:48:09.127Z,18.96
2022-10-23T07:50:38.224Z,18.92
2022-10-23T07:53:05.117Z,19.32
2022-10-23T07:55:32.139Z,19.04
2022-10-23T07:58:01.907Z,18.97
2022-10-23T08:00:33.484Z,19.00
2022-10-23T08:03:03.968Z,18.89
2022-10-23T08:05:30.841Z,18.87
2022-10-23T08:07:59.718Z,19.20
2022-10-23T08:10:31.860Z,19.29
2022-10-23T08:13:08.977Z,19.26
2022-10-23T08:15:35.855Z,19.50
2022-10-23T08:18:05.815Z,19.99
2022-10-23T08:20:34.390Z,20.07
2022-10-23T08:23:01.200Z,19.78
2022-10-23T08:25:27.905Z,19.66
2022-10-23T08:27:54.744Z,19.64
2022-10-23T08:30:21.458Z,19.79
2022-10-23T08:32:48.152Z,19.81
2022-10-23T08:35:24.544Z,19.91
2022-10-23T08:37:54.421Z,19.93
2022-10-23T08:40:25.368Z,19.93
2022-10-23T08:43:01.686Z,20.10
2022-10-23T08:46:00.263Z,20.22
2022-10-23T08:48:56.354Z,20.40
2022-10-23T08:51:34.621Z,20.66
2022-10-23T08:54:22.520Z,20.88
2022-10-23T08:57:01.520Z,20.81
2022-10-23T08:59:35.289Z,20.81
2022-10-23T09:02:30.650Z,20.80
2022-10-23T09:04:58.799Z,20.87
2022-10-23T09:07:34.819Z,20.93
2022-10-23T09:10:28.183Z,21.06
2022-10-23T09:13:04.482Z,21.11
2022-10-23T09:16:01.808Z,21.42
2022-10-23T09:18:31.788Z,21.29
2022-10-23T09:21:00.868Z,21.34
2022-10-23T09:23:27.728Z,21.40
2022-10-23T09:25:59.876Z,21.48
2022-10-23T09:28:33.297Z,21.58
2022-10-23T09:31:20.291Z,21.73
2022-10-23T09:34:10.970Z,21.87
2022-10-23T09:36:50.584Z,22.08
2022-10-23T09:39:32.823Z,22.05
2022-10-23T09:42:14.470Z,22.17
2022-10-23T09:44:52.948Z,22.19
2022-10-23T09:47:27.549Z,22.22
2022-10-23T09:49:57.210Z,22.19
2022-10-23T09:52:36.210Z,22.18
2022-10-23T09:55:24.987Z,22.26
2022-10-23T09:57:55.693Z,22.28
2022-10-23T10:00:25.363Z,22.34
2022-10-23T10:03:06.774Z,22.37
2022-10-23T10:05:38.858Z,22.52
2022-10-23T10:08:21.069Z,22.59
2022-10-23T10:11:02.537Z,22.63
2022-10-23T10:13:45.391Z,22.83
2022-10-23T10:16:45.587Z,22.88
2022-10-23T10:19:50.321Z,22.83
2022-10-23T10:22:32.036Z,22.97
2022-10-23T10:25:07.346Z,23.19
2022-10-23T10:28:00.912Z,23.17
2022-10-23T10:30:40.616Z,23.13
2022-10-23T10:33:46.574Z,23.07
2022-10-23T10:36:41.454Z,23.08
2022-10-23T10:39:42.263Z,22.94
2022-10-23T10:42:31.126Z,22.73
2022-10-23T10:45:07.199Z,22.77
2022-10-23T10:47:43.425Z,22.52
2022-10-23T10:50:25.913Z,22.55
2022-10-23T10:53:12.093Z,22.58
2022-10-23T10:58:40.451Z,23.10
2022-10-23T11:01:29.202Z,22.98
2022-10-23T11:04:19.490Z,22.85
2022-10-23T11:06:51.923Z,22.89
2022-10-23T11:09:45.634Z,22.80
2022-10-23T11:12:24.781Z,22.78
2022-10-23T11:14:52.105Z,22.58
2022-10-23T11:17:43.351Z,22.49
2022-10-23T11:20:40.933Z,22.44
2022-10-23T11:23:48.731Z,22.34
2022-10-23T11:26:31.045Z,22.44
2022-10-23T11:29:29.358Z,22.40
2022-10-23T11:32:09.479Z,22.64
2022-10-23T11:34:46.259Z,22.66
2022-10-23T11:37:18.616Z,22.52
2022-10-23T11:40:14.611Z,22.49
2022-10-23T11:42:53.165Z,22.52
2022-10-23T11:45:40.779Z,22.74
2022-10-23T11:48:30.205Z,22.71
2022-10-23T11:51:00.326Z,22.85
2022-10-23T11:53:35.698Z,22.82
2022-10-23T11:56:26.981Z,22.93
2022-10-23T11:58:58.146Z,23.08
2022-10-23T12:01:45.679Z,23.00
2022-10-23T12:04:14.479Z,22.95
2022-10-23T12:06:56.421Z,22.99
2022-10-23T12:09:46.471Z,23.03
2022-10-23T12:14:51.322Z,22.88
2022-10-23T12:17:37.301Z,22.88
2022-10-23T12:20:13.918Z,22.78
2022-10-23T12:22:53.509Z,22.86
2022-10-23T12:25:29.158Z,23.06
2022-10-23T12:28:09.551Z,23.09
2022-10-23T12:30:51.789Z,23.04
2022-10-23T12:33:37.759Z,23.00
2022-10-23T12:36:09.999Z,23.09
2022-10-23T12:38:44.516Z,23.21
2022-10-23T12:41:43.255Z,23.21
2022-10-23T12:44:16.404Z,23.35
2022-10-23T12:46:47.584Z,23.36
2022-10-23T12:49:25.137Z,23.25
2022-10-23T12:52:07.792Z,23.15
2022-10-23T12:54:42.953Z,23.07
2022-10-23T12:57:32.889Z,23.13
2022-10-23T13:00:11.090Z,22.98
2022-10-23T13:02:39.736Z,22.89
2022-10-23T13:05:33.247Z,22.89
2022-10-23T13:08:02.496Z,22.90
2022-10-23T13:10:33.926Z,22.88
2022-10-23T13:13:05.528Z,22.87
2022-10-23T13:15:41.153Z,22.75
2022-10-23T13:18:09.569Z,22.92
2022-10-23T13:20:39.159Z,22.87
2022-10-23T13:23:26.056Z,22.85
2022-10-23T13:25:57.090Z,22.75
2022-10-23T13:29:00.565Z,23.01
2022-10-23T13:31:34.444Z,23.19
2022-10-23T13:34:06.255Z,23.09
2022-10-23T13:36:40.564Z,22.98
2022-10-23T13:41:45.839Z,22.85
2022-10-23T13:44:23.735Z,23.04
2022-10-23T13:46:54.410Z,23.01
2022-10-23T13:49:21.252Z,23.05
2022-10-23T13:51:53.742Z,23.10
2022-10-23T13:56:57.959Z,23.12
2022-10-23T13:59:28.064Z,23.12
2022-10-23T14:01:57.838Z,23.09
2022-10-23T14:04:24.616Z,23.19
2022-10-23T14:06:55.063Z,23.44
2022-10-23T14:09:21.744Z,23.23
2022-10-23T14:11:54.081Z,23.31
2022-10-23T14:14:26.365Z,23.41
2022-10-23T14:16:54.955Z,23.25
2022-10-23T14:19:21.845Z,23.24
2022-10-23T14:21:55.899Z,23.25
2022-10-23T14:24:28.409Z,23.27
2022-10-23T14:27:02.606Z,23.12
2022-10-23T14:29:29.491Z,23.09
2022-10-23T14:31:56.321Z,22.93
2022-10-23T14:34:27.093Z,22.97
2022-10-23T14:37:04.050Z,23.04
2022-10-23T14:39:34.590Z,22.94
2022-10-23T14:42:30.533Z,23.01
2022-10-23T14:45:06.677Z,23.23
2022-10-23T14:47:33.463Z,23.14
2022-10-23T14:50:00.363Z,23.00
2022-10-23T14:52:27.463Z,23.13
2022-10-23T14:54:54.373Z,22.99
2022-10-23T14:57:24.220Z,22.94
2022-10-23T14:59:52.758Z,23.15
2022-10-23T15:02:20.873Z,23.18
2022-10-23T15:04:48.514Z,23.07
2022-10-23T15:07:16.346Z,23.12
2022-10-23T15:09:43.094Z,23.01
2022-10-23T15:12:09.820Z,22.99
2022-10-23T15:14:36.549Z,22.94
2022-10-23T15:17:06.208Z,22.92
2022-10-23T15:19:36.086Z,23.00
2022-10-23T15:22:03.028Z,22.90
2022-10-23T15:24:30.489Z,22.85
2022-10-23T15:26:57.372Z,23.01
2022-10-23T15:31:57.761Z,22.85
2022-10-23T15:34:27.733Z,22.85
2022-10-23T15:37:01.188Z,22.79
2022-10-23T15:39:38.144Z,22.78
2022-10-23T15:42:06.694Z,22.72
2022-10-23T15:44:35.795Z,22.70
2022-10-23T15:47:02.901Z,22.65
2022-10-23T15:49:33.398Z,22.71
2022-10-23T15:52:04.995Z,22.71
2022-10-23T15:54:32.983Z,22.65
2022-10-23T15:57:05.485Z,22.63
2022-10-23T15:59:32.848Z,22.57
2022-10-23T16:02:02.980Z,22.56
2022-10-23T16:04:30.924Z,22.51
2022-10-23T16:07:00.770Z,22.48
2022-10-23T16:09:30.219Z,22.46
2022-10-23T16:11:57.172Z,22.49
2022-10-23T16:14:30.234Z,22.48
2022-10-23T16:17:00.225Z,22.49
2022-10-23T16:19:27.717Z,22.48
2022-10-23T16:21:54.761Z,22.39
2022-10-23T16:24:27.828Z,22.39
2022-10-23T16:27:02.957Z,22.33
2022-10-23T16:29:31.542Z,22.27
2022-10-23T16:32:03.503Z,22.24
2022-10-23T16:34:34.039Z,22.16
2022-10-23T16:37:02.432Z,22.10
2022-10-23T16:39:32.090Z,22.04
2022-10-23T16:42:01.765Z,22.01
2022-10-23T16:44:29.448Z,21.94
2022-10-23T16:47:02.325Z,21.99
2022-10-23T16:49:31.052Z,21.97
2022-10-23T16:51:58.461Z,21.88
2022-10-23T16:54:25.305Z,21.92
2022-10-23T16:56:52.224Z,21.87
2022-10-23T16:59:19.025Z,21.82
2022-10-23T17:01:53.093Z,21.84
2022-10-23T17:04:20.476Z,21.76
2022-10-23T17:06:47.249Z,21.63
2022-10-23T17:09:14.110Z,21.55
2022-10-23T17:11:44.174Z,21.52
2022-10-23T17:14:19.933Z,21.58
2022-10-23T17:16:51.676Z,21.50
2022-10-23T17:22:12.061Z,21.40
2022-10-23T17:24:41.198Z,21.42
2022-10-23T17:27:08.558Z,21.39
2022-10-23T17:29:44.721Z,21.37
2022-10-23T17:32:14.632Z,21.39
2022-10-23T17:34:46.259Z,21.28
2022-10-23T17:37:16.234Z,21.23
2022-10-23T17:39:43.258Z,21.26
2022-10-23T17:42:10.120Z,21.25
2022-10-23T17:44:37.002Z,21.30
2022-10-23T17:47:06.708Z,21.20
2022-10-23T17:49:33.567Z,21.26
2022-10-23T17:52:09.204Z,21.17
2022-10-23T17:54:36.148Z,21.15
2022-10-23T17:57:08.745Z,21.19
2022-10-23T17:59:35.542Z,21.12
2022-10-23T18:02:02.633Z,21.03
2022-10-23T18:04:31.139Z,21.02
2022-10-23T18:06:57.784Z,21.13
2022-10-23T18:09:24.506Z,21.00
2022-10-23T18:11:51.848Z,21.00
2022-10-23T18:14:20.324Z,20.96
2022-10-23T18:16:47.773Z,21.00
2022-10-23T18:19:19.522Z,20.91
2022-10-23T18:21:47.794Z,20.90
2022-10-23T18:24:15.455Z,20.89
2022-10-23T18:26:42.888Z,20.82
2022-10-23T18:29:14.723Z,20.86
2022-10-23T18:31:44.483Z,20.83
2022-10-23T18:34:21.685Z,20.76
2022-10-23T18:36:50.167Z,20.86
2022-10-23T18:39:19.445Z,20.79
2022-10-23T18:41:46.469Z,20.77
2022-10-23T18:44:17.624Z,20.75
2022-10-23T18:46:46.045Z,20.73
2022-10-23T18:49:13.097Z,20.87
2022-10-23T18:51:40.454Z,20.78
2022-10-23T18:54:12.244Z,20.83
2022-10-23T18:56:41.161Z,20.76
2022-10-23T18:59:12.245Z,20.85
2022-10-23T19:01:42.373Z,20.83
2022-10-23T19:04:12.648Z,20.89
2022-10-23T19:06:39.936Z,20.84
2022-10-23T19:09:08.365Z,20.88
2022-10-23T19:11:35.341Z,20.91
2022-10-23T19:14:03.118Z,20.83
2022-10-23T19:16:49.728Z,20.81
2022-10-23T19:19:30.666Z,20.83
2022-10-23T19:21:57.721Z,20.75
2022-10-23T19:24:38.516Z,20.73
2022-10-23T19:27:09.341Z,20.75
2022-10-23T19:29:45.203Z,20.80
2022-10-23T19:32:15.113Z,20.74
2022-10-23T19:34:44.562Z,20.59
2022-10-23T19:37:11.558Z,20.51
2022-10-23T19:39:41.430Z,20.51
2022-10-23T19:42:11.542Z,20.57
2022-10-23T19:44:39.003Z,20.54
2022-10-23T19:47:09.186Z,20.50
2022-10-23T19:49:44.440Z,20.53
2022-10-23T19:52:18.077Z,20.49
2022-10-23T19:54:45.865Z,20.42
2022-10-23T19:57:17.046Z,20.37
2022-10-23T19:59:53.465Z,20.46
2022-10-23T20:02:21.397Z,20.46
2022-10-23T20:04:48.856Z,20.50
2022-10-23T20:07:17.608Z,20.49
2022-10-23T20:09:44.844Z,20.53
2022-10-23T20:12:14.600Z,20.45
2022-10-23T20:14:44.269Z,20.38
2022-10-23T20:17:13.342Z,20.29
2022-10-23T20:19:40.795Z,20.38
2022-10-23T20:22:14.761Z,20.36
2022-10-23T20:24:45.351Z,20.35
2022-10-23T20:27:15.843Z,20.40
2022-10-23T20:29:48.371Z,20.49
2022-10-23T20:32:17.271Z,20.41
2022-10-23T20:34:46.142Z,20.30
2022-10-23T20:37:22.048Z,20.28
2022-10-23T20:40:02.347Z,20.25
2022-10-23T20:42:29.924Z,20.23
2022-10-23T20:45:03.718Z,20.29
2022-10-23T20:47:33.019Z,20.26
2022-10-23T20:50:00.347Z,20.25
2022-10-23T20:52:30.350Z,20.25
2022-10-23T20:55:01.948Z,20.14
2022-10-23T20:57:34.805Z,20.19
2022-10-23T21:00:15.442Z,20.17
2022-10-23T21:02:52.134Z,20.09
2022-10-23T21:05:28.024Z,19.96
2022-10-23T21:07:58.989Z,19.96
2022-10-23T21:10:39.709Z,20.00
2022-10-23T21:13:06.578Z,19.96
2022-10-23T21:15:34.778Z,20.02
2022-10-23T21:18:13.191Z,19.97
2022-10-23T21:21:01.230Z,19.90
2022-10-23T21:23:29.724Z,20.04
2022-10-23T21:26:06.344Z,20.15
2022-10-23T21:28:44.272Z,20.05
2022-10-23T21:31:20.885Z,20.05
2022-10-23T21:33:51.292Z,20.03
2022-10-23T21:36:20.584Z,20.08
2022-10-23T21:39:00.268Z,19.95
2022-10-23T21:41:34.611Z,20.02
2022-10-23T21:44:07.194Z,19.96
2022-10-23T21:46:37.355Z,19.87
2022-10-23T21:49:14.172Z,19.91
2022-10-23T21:51:47.532Z,19.82
2022-10-23T21:54:16.504Z,19.88
2022-10-23T21:56:54.176Z,19.99
2022-10-23T21:59:30.325Z,20.02
2022-10-23T22:02:07.124Z,20.02
2022-10-23T22:04:35.134Z,20.02
2022-10-23T22:07:10.967Z,20.01
2022-10-23T22:09:37.711Z,20.06
2022-10-23T22:12:04.532Z,20.18
2022-10-23T22:14:31.298Z,20.05
2022-10-23T22:16:58.671Z,20.06
2022-10-23T22:19:26.416Z,20.10
2022-10-23T22:21:53.232Z,20.17
2022-10-23T22:24:23.475Z,20.01
2022-10-23T22:26:53.835Z,19.99
2022-10-23T22:29:31.537Z,19.98
2022-10-23T22:32:03.289Z,20.01
2022-10-23T22:34:53.674Z,20.22
2022-10-23T22:37:25.508Z,20.10
2022-10-23T22:39:52.862Z,20.15
2022-10-23T22:42:22.577Z,20.11
2022-10-23T22:44:49.436Z,20.27
2022-10-23T22:47:16.267Z,20.32
2022-10-23T22:49:47.622Z,20.54
2022-10-23T22:52:17.306Z,20.38
2022-10-23T22:54:50.661Z,20.18
2022-10-23T22:57:17.697Z,20.04
2022-10-23T22:59:44.513Z,20.02
2022-10-23T23:02:11.276Z,19.94
2022-10-23T23:04:39.238Z,19.96
2022-10-23T23:07:08.478Z,20.01
2022-10-23T23:09:43.823Z,19.92
2022-10-23T23:12:18.179Z,20.00
2022-10-23T23:14:45.073Z,20.01
2022-10-23T23:17:13.267Z,20.25
2022-10-23T23:19:40.214Z,20.11
2022-10-23T23:22:09.727Z,20.02
2022-10-23T23:24:36.698Z,20.12
2022-10-23T23:27:06.579Z,20.12
2022-10-23T23:29:36.155Z,20.03
2022-10-23T23:32:09.799Z,19.99
2022-10-23T23:34:36.658Z,19.74
2022-10-23T23:37:03.428Z,19.84
2022-10-23T23:39:30.187Z,19.91
2022-10-23T23:42:02.707Z,19.79
2022-10-23T23:44:31.075Z,19.62
2022-10-23T23:47:06.406Z,19.69
2022-10-23T23:49:33.316Z,19.65
2022-10-23T23:52:03.889Z,19.72
2022-10-23T23:54:30.710Z,19.74
2022-10-23T23:57:00.004Z,19.68
2022-10-23T23:59:26.843Z,19.77
